Time;durP1;ratioP1;P1;durP2;ratioP2;P2;SDS_P1;SDS_P2;PMS_P1;PMS_P2;Temp;Humidity;BMP_temperature;BMP_pressure;BME280_temperature;BME280_humidity;BME280_pressure;Samples;Min_cycle;Max_cycle;Signal;HPM_P1;HPM_P2
2021/01/18 00:00:23;;;;;;;85.38;44.08;;;;;;;-3.66;58.78;94194.41;1767443;79;21066;-48
2021/01/18 00:02:51;;;;;;;83.15;45.08;;;;;;;-3.67;59.04;94188.24;1767420;80;21087;-49
2021/01/18 00:05:20;;;;;;;87.37;46.30;;;;;;;-3.68;58.92;94196.69;1767440;81;21059;-49
2021/01/18 00:07:50;;;;;;;93.75;47.53;;;;;;;-3.73;58.93;94190.32;1767455;80;21110;-49
2021/01/18 00:10:21;;;;;;;88.03;44.98;;;;;;;-3.69;59.18;94191.13;1767467;80;21547;-48
2021/01/18 00:12:52;;;;;;;89.70;44.23;;;;;;;-3.65;58.81;94189.98;1767412;81;21044;-48
2021/01/18 00:15:23;;;;;;;84.05;45.00;;;;;;;-3.71;58.99;94194.16;1767490;80;21531;-48
2021/01/18 00:17:52;;;;;;;99.58;47.27;;;;;;;-3.66;58.72;94187.09;1767427;80;21051;-48
2021/01/18 00:20:21;;;;;;;90.72;46.05;;;;;;;-3.77;58.50;94197.00;1767441;80;21072;-48
2021/01/18 00:22:50;;;;;;;91.25;44.85;;;;;;;-3.91;59.11;94198.20;1766349;80;21429;-50
2021/01/18 00:25:23;;;;;;;93.07;46.35;;;;;;;-3.87;59.03;94194.22;1764397;80;21152;-48
2021/01/18 00:27:51;;;;;;;108.83;47.88;;;;;;;-3.93;59.02;94201.05;1764391;80;21055;-48
2021/01/18 00:30:22;;;;;;;80.97;42.40;;;;;;;-3.95;59.29;94197.95;1764530;80;21055;-48
2021/01/18 00:32:51;;;;;;;78.92;41.58;;;;;;;-3.94;59.13;94200.84;1764482;80;21091;-49
2021/01/18 00:35:20;;;;;;;83.87;43.25;;;;;;;-3.99;59.01;94191.78;1764488;81;22182;-49
2021/01/18 00:37:51;;;;;;;86.57;43.83;;;;;;;-4.06;59.09;94190.38;1764504;80;21118;-49
2021/01/18 00:40:22;;;;;;;97.50;51.73;;;;;;;-4.13;59.26;94198.34;1764634;80;21468;-48
2021/01/18 00:42:52;;;;;;;89.45;45.48;;;;;;;-4.08;59.39;94200.72;1764832;80;21079;-48
2021/01/18 00:45:22;;;;;;;94.35;48.10;;;;;;;-4.05;59.26;94198.64;1764672;80;21781;-48
2021/01/18 00:47:55;;;;;;;88.37;41.90;;;;;;;-4.14;59.26;94194.91;1764602;80;21238;-47
2021/01/18 00:50:27;;;;;;;89.62;42.85;;;;;;;-4.18;59.47;94196.79;1764629;80;21158;-48
2021/01/18 00:52:57;;;;;;;97.53;45.52;;;;;;;-4.28;59.43;94198.02;1735156;80;21139;-49
2021/01/18 00:55:25;;;;;;;92.65;45.65;;;;;;;-4.37;59.74;94190.25;1764584;80;21170;-49
2021/01/18 00:57:59;;;;;;;102.22;47.10;;;;;;;-4.37;59.65;94180.08;1761292;80;21162;-49
2021/01/18 01:00:30;;;;;;;105.75;49.20;;;;;;;-4.40;59.72;94181.56;1764557;80;21449;-48
2021/01/18 01:02:58;;;;;;;96.32;46.95;;;;;;;-4.38;59.66;94181.22;1764529;81;21130;-48
2021/01/18 01:05:28;;;;;;;100.75;44.25;;;;;;;-4.35;59.52;94180.48;1764522;81;21107;-47
2021/01/18 01:07:58;;;;;;;81.67;41.55;;;;;;;-4.35;59.63;94189.88;1764662;80;21495;-48
2021/01/18 01:10:31;;;;;;;82.53;43.68;;;;;;;-4.20;59.65;94180.25;1764585;80;21135;-48
2021/01/18 01:13:06;;;;;;;;;;;;;;;-4.04;59.25;94190.20;1767217;81;21145;-48
2021/01/18 01:15:35;;;;;;;74.25;37.08;;;;;;;-4.01;58.99;94186.02;1756147;81;20279;-48
2021/01/18 01:18:04;;;;;;;92.37;42.75;;;;;;;-3.98;58.65;94190.64;1756156;80;21105;-48
2021/01/18 01:20:33;;;;;;;101.00;44.58;;;;;;;-4.11;58.52;94182.64;1756194;80;21062;-48
2021/01/18 01:23:02;;;;;;;89.30;39.33;;;;;;;-4.27;58.80;94184.80;1754762;80;21046;-48
2021/01/18 01:25:30;;;;;;;70.45;34.85;;;;;;;-4.40;59.03;94182.91;1750616;80;21206;-49
2021/01/18 01:27:59;;;;;;;92.10;45.67;;;;;;;-4.55;59.05;94191.17;1750572;80;21601;-48
2021/01/18 01:30:27;;;;;;;79.67;41.25;;;;;;;-4.79;59.74;94177.66;1750524;82;21142;-49
2021/01/18 01:32:56;;;;;;;71.22;38.23;;;;;;;-4.83;59.88;94183.55;1750569;81;21118;-48
2021/01/18 01:35:26;;;;;;;70.35;36.77;;;;;;;-4.86;60.04;94183.50;1750581;80;21063;-49
2021/01/18 01:37:55;;;;;;;106.27;48.28;;;;;;;-4.86;60.05;94194.22;1750521;82;21437;-49
2021/01/18 01:40:23;;;;;;;102.40;47.58;;;;;;;-4.82;60.20;94183.75;1750529;82;21086;-48
2021/01/18 01:42:52;;;;;;;89.13;46.13;;;;;;;-4.79;60.02;94184.95;1750514;80;21070;-49
2021/01/18 01:45:20;;;;;;;80.32;41.98;;;;;;;-4.89;60.08;94190.93;1750562;80;21050;-49
2021/01/18 01:47:51;;;;;;;106.60;51.88;;;;;;;-5.01;60.45;94191.93;1750601;80;21122;-49
2021/01/18 01:50:33;;;;;;;83.55;41.83;;;;;;;-4.89;60.75;94193.61;1750693;81;22253;-49
2021/01/18 01:53:16;;;;;;;85.60;40.67;;;;;;;-4.70;60.37;94188.90;1750638;80;21066;-48
2021/01/18 01:55:46;;;;;;;71.50;37.40;;;;;;;-4.55;59.75;94187.94;1743867;82;21086;-48
2021/01/18 01:58:14;;;;;;;54.63;32.03;;;;;;;-4.62;59.67;94193.78;1750528;82;21475;-48
2021/01/18 02:00:43;;;;;;;98.60;47.27;;;;;;;-4.66;59.49;94195.07;1750576;80;21081;-48
2021/01/18 02:03:18;;;;;;;105.07;52.55;;;;;;;-4.73;59.46;94194.20;1750558;82;21432;-47
2021/01/18 02:05:48;;;;;;;94.20;46.70;;;;;;;-4.80;59.85;94188.18;1747558;82;21133;-49
2021/01/18 02:08:17;;;;;;;74.07;40.17;;;;;;;-4.68;59.76;94198.69;1750539;82;21173;-49
2021/01/18 02:10:45;;;;;;;86.08;44.55;;;;;;;-4.69;59.43;94198.48;1750506;81;21137;-49
2021/01/18 02:13:57;;;;;;;80.75;42.65;;;;;;;-4.77;59.47;94198.77;1750549;82;21063;-48
2021/01/18 02:16:47;;;;;;;72.20;35.63;;;;;;;-4.80;59.48;94194.13;1750530;82;21386;-49
2021/01/18 02:19:38;;;;;;;59.15;34.08;;;;;;;-4.90;59.47;94194.75;1750546;80;21567;-49
2021/01/18 02:22:43;;;;;;;74.20;37.83;;;;;;;-4.99;59.51;94197.70;1750536;80;21146;-49
2021/01/18 02:25:28;;;;;;;69.47;37.30;;;;;;;-4.95;59.66;94191.81;1750195;81;21468;-49
2021/01/18 02:28:40;;;;;;;67.58;38.15;;;;;;;-4.92;59.39;94190.32;1750511;80;21069;-49
2021/01/18 02:31:48;;;;;;;89.90;43.02;;;;;;;-4.88;59.28;94195.95;1750540;82;21257;-49
2021/01/18 02:34:53;;;;;;;76.33;39.83;;;;;;;-4.83;59.17;94211.71;1750462;80;21149;-48
2021/01/18 02:38:02;;;;;;;90.77;45.55;;;;;;;-4.73;59.00;94204.38;1750516;80;21138;-48
2021/01/18 02:40:36;;;;;;;66.77;37.03;;;;;;;-4.58;58.91;94208.01;1750511;82;21087;-48
2021/01/18 02:43:07;;;;;;;59.45;31.70;;;;;;;-4.52;58.53;94211.91;1750574;82;21087;-47
2021/01/18 02:45:35;;;;;;;63.65;33.67;;;;;;;-4.57;58.53;94213.58;1750555;82;21346;-48
2021/01/18 02:48:05;;;;;;;69.75;35.43;;;;;;;-4.59;58.54;94205.12;1721526;82;21082;-49
2021/01/18 02:50:34;;;;;;;65.92;36.05;;;;;;;-4.61;58.82;94198.01;1721907;82;21070;-48
2021/01/18 02:53:02;;;;;;;73.28;40.20;;;;;;;-4.54;58.40;94200.77;1721619;82;21090;-48
2021/01/18 02:55:31;;;;;;;69.62;36.77;;;;;;;-4.57;58.17;94200.92;1721536;82;21082;-49
2021/01/18 02:58:02;;;;;;;75.60;39.73;;;;;;;-4.68;58.04;94196.56;1750448;80;22023;-49
2021/01/18 03:00:51;;;;;;;72.50;38.88;;;;;;;-4.79;58.13;94195.67;1750557;80;21094;-49
2021/01/18 03:03:54;;;;;;;68.78;37.05;;;;;;;-4.83;58.22;94205.59;1749064;80;21503;-48
2021/01/18 03:06:36;;;;;;;72.23;37.77;;;;;;;-4.85;58.02;94199.79;1750715;80;21158;-48
2021/01/18 03:09:19;;;;;;;76.20;39.35;;;;;;;-4.90;57.96;94196.88;1750687;82;21165;-48
2021/01/18 03:11:50;;;;;;;71.50;36.90;;;;;;;-4.96;57.97;94193.53;1749712;82;21158;-49
2021/01/18 03:14:29;;;;;;;58.50;34.95;;;;;;;-4.98;57.98;94201.92;1750545;80;21130;-48
2021/01/18 03:16:58;;;;;;;60.95;32.40;;;;;;;-5.10;58.04;94194.67;1750520;82;21090;-48
2021/01/18 03:19:45;;;;;;;64.95;32.40;;;;;;;-5.17;58.65;94209.33;1750550;80;21125;-48
2021/01/18 03:22:30;;;;;;;75.95;39.60;;;;;;;-5.23;58.89;94203.50;1750567;81;21052;-47
2021/01/18 03:25:04;;;;;;;83.50;42.67;;;;;;;-5.28;58.76;94197.67;1750344;80;21383;-48
2021/01/18 03:27:58;;;;;;;82.88;43.95;;;;;;;-5.35;59.28;94202.14;1750510;80;21506;-48
2021/01/18 03:30:27;;;;;;;81.78;41.83;;;;;;;-5.26;59.09;94207.45;1750514;80;21583;-48
2021/01/18 03:32:56;;;;;;;74.35;39.67;;;;;;;-5.20;58.96;94206.00;1750504;80;21169;-48
2021/01/18 03:35:24;;;;;;;79.03;40.38;;;;;;;-5.16;59.13;94198.81;1750498;81;21055;-48
2021/01/18 03:37:56;;;;;;;80.45;39.55;;;;;;;-5.06;59.07;94196.83;1750470;82;21390;-48
2021/01/18 03:40:26;;;;;;;74.35;36.75;;;;;;;-4.94;58.61;94205.42;1750534;80;21078;-48
2021/01/18 03:43:02;;;;;;;82.57;40.48;;;;;;;-4.88;58.38;94195.95;1750481;80;21106;-48
2021/01/18 03:45:34;;;;;;;82.47;41.60;;;;;;;-4.96;58.14;94192.19;1750511;80;21097;-48
2021/01/18 03:48:04;;;;;;;74.13;38.70;;;;;;;-5.05;58.57;94201.05;1750773;82;21236;-48
2021/01/18 03:50:34;;;;;;;71.87;37.25;;;;;;;-5.05;58.45;94197.03;1750625;80;21538;-47
2021/01/18 03:53:02;;;;;;;82.90;42.83;;;;;;;-5.07;58.50;94201.98;1750418;80;21070;-47
2021/01/18 03:55:31;;;;;;;75.28;37.67;;;;;;;-5.14;58.48;94199.22;1750479;80;21078;-47
2021/01/18 03:58:00;;;;;;;75.45;38.92;;;;;;;-5.13;58.56;94200.77;1750451;82;21149;-48
2021/01/18 04:00:33;;;;;;;87.62;40.92;;;;;;;-5.18;58.52;94201.84;1750470;80;21154;-48
2021/01/18 04:03:02;;;;;;;80.72;38.05;;;;;;;-5.10;58.68;94206.19;1745954;81;22118;-48
2021/01/18 04:05:30;;;;;;;81.47;40.50;;;;;;;-4.92;58.19;94209.09;1750440;80;21086;-48
2021/01/18 04:07:59;;;;;;;71.77;37.83;;;;;;;-4.91;57.79;94206.61;1750478;82;21146;-48
2021/01/18 04:10:29;;;;;;;80.15;42.40;;;;;;;-4.89;57.72;94205.12;1750520;80;21114;-48
2021/01/18 04:12:57;;;;;;;78.85;39.70;;;;;;;-4.83;57.63;94206.94;1750644;80;21110;-48
2021/01/18 04:15:26;;;;;;;73.75;37.85;;;;;;;-4.86;57.51;94204.95;1750693;80;21209;-48
2021/01/18 04:17:56;;;;;;;84.10;42.20;;;;;;;-5.00;57.68;94206.13;1750702;80;21172;-48
2021/01/18 04:20:25;;;;;;;77.85;39.48;;;;;;;-5.15;58.02;94203.03;1750637;82;21122;-53
2021/01/18 04:22:56;;;;;;;84.00;42.08;;;;;;;-5.23;58.14;94205.39;1750702;80;21483;-49
2021/01/18 04:25:27;;;;;;;69.00;34.20;;;;;;;-5.37;58.32;94202.52;1757241;80;21050;-47
2021/01/18 04:28:00;;;;;;;80.17;38.95;;;;;;;-5.51;58.41;94211.67;1759727;80;21390;-47
2021/01/18 04:30:31;;;;;;;66.33;34.03;;;;;;;-5.59;58.80;94208.66;1759763;81;21138;-48
2021/01/18 04:33:03;;;;;;;77.53;36.35;;;;;;;-5.51;59.05;94217.03;1759811;81;21125;-48
2021/01/18 04:35:33;;;;;;;70.45;36.00;;;;;;;-5.34;58.94;94208.50;1759960;81;21502;-47
2021/01/18 04:38:01;;;;;;;76.22;38.33;;;;;;;-5.15;58.59;94206.47;1759740;80;21142;-49
2021/01/18 04:40:31;;;;;;;74.12;37.48;;;;;;;-5.00;58.06;94203.44;1759742;81;21991;-49
2021/01/18 04:42:59;;;;;;;75.67;38.70;;;;;;;-4.90;58.16;94205.48;1759663;80;21137;-48
2021/01/18 04:45:29;;;;;;;71.75;37.42;;;;;;;-4.72;57.81;94205.93;1759779;81;21596;-48
2021/01/18 04:47:58;;;;;;;82.78;39.83;;;;;;;-4.62;57.43;94211.22;1759744;80;21145;-48
2021/01/18 04:50:28;;;;;;;91.65;43.63;;;;;;;-4.74;57.26;94210.10;1759789;80;21550;-49
2021/01/18 04:53:15;;;;;;;90.77;45.40;;;;;;;-4.85;57.35;94211.30;1759734;81;22175;-48
2021/01/18 04:56:04;;;;;;;93.55;46.48;;;;;;;-4.93;57.58;94216.94;1757133;80;21077;-47
2021/01/18 04:58:34;;;;;;;108.40;52.95;;;;;;;-4.94;57.58;94222.09;1759693;80;21070;-48
2021/01/18 05:01:05;;;;;;;107.50;52.50;;;;;;;-5.05;57.64;94223.29;1759840;80;21593;-49
2021/01/18 05:03:39;;;;;;;112.42;52.35;;;;;;;-5.13;57.72;94228.33;1759735;80;21086;-48
2021/01/18 05:06:19;;;;;;;89.83;41.60;;;;;;;-5.21;57.86;94226.69;1759270;81;21210;-48
2021/01/18 05:09:21;;;;;;;81.60;41.55;;;;;;;-5.11;57.79;94226.64;1758644;80;21133;-49
2021/01/18 05:11:51;;;;;;;97.05;46.18;;;;;;;-5.11;57.54;94230.66;1759723;80;21553;-49
2021/01/18 05:14:19;;;;;;;84.50;41.33;;;;;;;-5.21;57.59;94224.01;1759690;80;21121;-48
2021/01/18 05:16:54;;;;;;;83.17;41.20;;;;;;;-5.15;57.50;94231.18;1759708;81;21122;-48
2021/01/18 05:19:30;;;;;;;69.95;38.23;;;;;;;-5.04;57.13;94226.73;1873552;75;22653;-50
2021/01/18 05:21:59;;;;;;;70.90;35.52;;;;;;;-5.16;56.98;94236.34;1841624;78;21033;-48
2021/01/18 05:24:27;;;;;;;74.32;36.75;;;;;;;-5.27;56.72;94235.39;1841581;78;21362;-48
2021/01/18 05:27:06;;;;;;;65.32;34.55;;;;;;;-5.32;56.61;94239.14;1841613;78;21538;-48
2021/01/18 05:29:36;;;;;;;71.72;36.13;;;;;;;-5.34;56.42;94245.22;1812937;78;21140;-49
2021/01/18 05:32:23;;;;;;;63.00;34.95;;;;;;;-5.37;56.41;94240.04;1808511;78;21108;-49
2021/01/18 05:34:55;;;;;;;70.52;35.08;;;;;;;-5.38;56.32;94242.48;1808651;78;21576;-48
2021/01/18 05:37:23;;;;;;;75.72;34.33;;;;;;;-5.53;56.53;94254.13;1774996;79;21585;-48
2021/01/18 05:39:51;;;;;;;58.38;28.77;;;;;;;-5.60;56.63;94245.95;1808560;78;21643;-49
2021/01/18 05:42:22;;;;;;;59.05;30.32;;;;;;;-5.65;56.57;94255.64;1808469;78;21077;-49
2021/01/18 05:44:51;;;;;;;61.83;31.00;;;;;;;-5.76;56.53;94260.03;1808534;78;21075;-49
2021/01/18 05:47:20;;;;;;;63.50;30.40;;;;;;;-5.76;56.65;94261.37;1808607;78;21047;-49
2021/01/18 05:49:50;;;;;;;69.42;33.78;;;;;;;-5.70;56.56;94262.64;1808506;79;22022;-48
2021/01/18 05:52:28;;;;;;;69.00;34.67;;;;;;;-5.73;56.54;94263.36;1808445;79;21101;-49
2021/01/18 05:55:27;;;;;;;57.73;29.20;;;;;;;-5.79;56.52;94261.36;1808462;78;21131;-48
2021/01/18 05:58:01;;;;;;;69.67;33.58;;;;;;;-5.75;56.57;94262.16;1808436;79;21129;-48
2021/01/18 06:00:36;;;;;;;85.32;38.38;;;;;;;-5.75;56.33;94265.59;1808530;78;21073;-48
2021/01/18 06:03:10;;;;;;;84.58;42.48;;;;;;;-5.72;56.21;94264.91;1808493;78;21187;-49
2021/01/18 06:05:41;;;;;;;74.37;38.15;;;;;;;-5.78;56.33;94257.55;1808494;79;21066;-48
2021/01/18 06:08:19;;;;;;;82.82;40.03;;;;;;;-5.84;56.51;94259.73;1808592;79;21053;-50
2021/01/18 06:10:49;;;;;;;86.35;39.65;;;;;;;-5.77;56.46;94261.16;1808575;78;21050;-48
2021/01/18 06:13:24;;;;;;;82.70;42.67;;;;;;;-5.66;56.30;94266.14;1808519;78;21062;-48
2021/01/18 06:16:09;;;;;;;95.05;42.90;;;;;;;-5.60;56.17;94262.03;1808530;78;22248;-48
2021/01/18 06:18:41;;;;;;;88.70;44.95;;;;;;;-5.64;55.93;94267.90;1807301;78;21081;-49
2021/01/18 06:21:10;;;;;;;76.20;37.80;;;;;;;-5.67;55.86;94272.63;1808448;78;21045;-48
2021/01/18 06:23:40;;;;;;;59.98;31.77;;;;;;;-5.71;55.91;94274.48;1808227;78;21215;-50
2021/01/18 06:26:09;;;;;;;83.10;39.63;;;;;;;-5.75;55.72;94281.66;1808428;78;21647;-49
2021/01/18 06:28:41;;;;;;;78.95;39.80;;;;;;;-5.77;55.50;94282.58;1808387;78;21373;-48
2021/01/18 06:31:10;;;;;;;135.95;57.20;;;;;;;-5.78;55.67;94281.65;1807825;78;21486;-48
2021/01/18 06:33:47;;;;;;;118.28;48.30;;;;;;;-5.80;55.69;94272.62;1807743;78;21474;-48
2021/01/18 06:36:25;;;;;;;90.30;41.30;;;;;;;-5.89;55.81;94275.31;1807939;78;21041;-52
2021/01/18 06:39:04;;;;;;;74.95;35.88;;;;;;;-5.97;55.92;94283.02;1807595;78;21223;-49
2021/01/18 06:41:37;;;;;;;82.42;41.68;;;;;;;-6.02;56.09;94285.41;1806735;78;21364;-49
2021/01/18 06:44:06;;;;;;;67.15;34.15;;;;;;;-6.05;56.21;94286.13;1740213;82;21191;-51
2021/01/18 06:46:36;;;;;;;90.80;44.38;;;;;;;-5.87;56.24;94284.55;1761255;80;21149;-48
2021/01/18 06:49:05;;;;;;;114.80;49.18;;;;;;;-5.81;55.96;94289.06;1747813;81;21173;-53
2021/01/18 06:51:34;;;;;;;115.75;51.30;;;;;;;-5.75;55.95;94286.25;1756362;81;21505;-49
2021/01/18 06:54:03;;;;;;;89.32;44.05;;;;;;;-5.60;55.83;94287.48;1757048;80;21389;-51
2021/01/18 06:56:42;;;;;;;102.30;46.90;;;;;;;-5.50;55.45;94294.94;1730222;80;21103;-49
2021/01/18 06:59:40;;;;;;;112.20;50.60;;;;;;;-5.55;55.27;94289.88;1773816;80;21069;-49
2021/01/18 07:02:23;;;;;;;97.20;45.98;;;;;;;-5.57;55.39;94293.45;1754209;81;21070;-48
2021/01/18 07:04:52;;;;;;;71.42;37.00;;;;;;;-5.56;55.17;94297.70;1745696;80;21185;-49
2021/01/18 07:07:25;;;;;;;76.20;36.03;;;;;;;-5.65;55.10;94299.83;1734383;80;21398;-50
2021/01/18 07:10:07;;;;;;;87.47;43.13;;;;;;;-5.69;55.30;94303.02;1757759;80;21145;-49
2021/01/18 07:12:35;;;;;;;79.53;40.60;;;;;;;-5.64;55.13;94298.70;1754250;80;21106;-50
2021/01/18 07:15:07;;;;;;;72.70;36.45;;;;;;;-5.64;55.04;94298.70;1754590;80;21515;-49
2021/01/18 07:17:54;;;;;;;85.80;41.53;;;;;;;-5.64;54.83;94308.08;1739955;81;21185;-48
2021/01/18 07:20:28;;;;;;;84.92;43.55;;;;;;;-5.58;54.81;94302.63;1740722;81;21364;-50
2021/01/18 07:23:15;;;;;;;82.70;38.95;;;;;;;-5.64;54.62;94307.31;1747393;81;21779;-49
2021/01/18 07:25:48;;;;;;;82.22;42.73;;;;;;;-5.62;54.55;94314.43;1753997;80;21502;-52
2021/01/18 07:28:20;;;;;;;81.63;40.45;;;;;;;-5.60;54.34;94316.94;1746594;81;21558;-50
2021/01/18 07:30:49;;;;;;;90.28;44.42;;;;;;;-5.62;54.30;94316.52;1751608;80;21193;-50
2021/01/18 07:33:19;;;;;;;96.25;49.55;;;;;;;-5.66;54.40;94314.36;1749337;81;21376;-49
2021/01/18 07:35:49;;;;;;;81.55;41.63;;;;;;;-5.48;54.33;94318.13;1746625;80;21138;-50
2021/01/18 07:38:21;;;;;;;88.15;41.77;;;;;;;-5.33;53.84;94322.59;1741176;80;21064;-50
2021/01/18 07:41:11;;;;;;;69.27;34.58;;;;;;;-5.32;53.52;94324.14;1753839;80;21052;-49
2021/01/18 07:43:45;;;;;;;81.50;41.88;;;;;;;-5.31;53.43;94331.05;1746483;80;21138;-50
2021/01/18 07:46:30;;;;;;;124.97;61.30;;;;;;;-5.35;53.55;94337.47;1746219;81;21213;-49
2021/01/18 07:49:15;;;;;;;101.18;48.60;;;;;;;-5.31;53.45;94331.05;1746247;81;21475;-49
2021/01/18 07:51:45;;;;;;;108.37;50.95;;;;;;;-5.19;52.98;94330.87;1740906;80;21177;-50
2021/01/18 07:54:34;;;;;;;79.95;38.35;;;;;;;-5.10;52.97;94328.71;1746596;80;21657;-51
2021/01/18 07:57:38;;;;;;;93.50;47.55;;;;;;;-5.01;52.74;94329.26;1742398;80;21224;-51
2021/01/18 08:00:24;;;;;;;;;;;;;;;-4.99;52.39;94326.98;1745672;80;21215;-50
2021/01/18 08:02:53;;;;;;;90.17;46.30;;;;;;;-4.98;52.32;94329.87;1724949;80;20383;-50
2021/01/18 08:05:35;;;;;;;78.15;40.23;;;;;;;-4.96;52.32;94323.00;1733828;82;21186;-49
2021/01/18 08:08:09;;;;;;;74.92;37.40;;;;;;;-4.84;51.91;94326.05;1734841;80;21194;-53
2021/01/18 08:10:59;;;;;;;83.85;42.78;;;;;;;-4.78;51.38;94323.28;1730519;80;21173;-49
2021/01/18 08:13:42;;;;;;;58.15;28.87;;;;;;;-4.79;51.43;94317.72;1726949;80;21376;-50
2021/01/18 08:16:29;;;;;;;91.97;46.88;;;;;;;-4.76;51.23;94327.13;1721142;82;21182;-52
2021/01/18 08:19:22;;;;;;;72.32;37.25;;;;;;;-4.72;51.33;94325.30;1719488;82;21150;-51
2021/01/18 08:22:02;;;;;;;75.42;38.80;;;;;;;-4.53;51.11;94328.42;1733009;80;21173;-50
2021/01/18 08:24:35;;;;;;;75.37;36.93;;;;;;;-4.33;51.17;94337.91;1721776;80;21196;-51
2021/01/18 08:27:07;;;;;;;80.65;44.85;;;;;;;-4.13;50.92;94334.73;1729655;80;22117;-51
2021/01/18 08:29:53;;;;;;;80.72;43.17;;;;;;;-3.93;49.96;94337.47;1734477;80;21230;-48
2021/01/18 08:32:36;;;;;;;76.07;38.60;;;;;;;-3.88;49.89;94342.52;1737973;80;21184;-52
2021/01/18 08:35:08;;;;;;;57.45;31.60;;;;;;;-3.78;49.35;94339.75;1731158;80;21149;-50
2021/01/18 08:37:37;;;;;;;63.10;33.80;;;;;;;-3.78;49.70;94347.80;1732324;80;21651;-51
2021/01/18 08:40:15;;;;;;;60.38;33.45;;;;;;;-3.80;49.63;94343.38;1744198;80;21620;-52
2021/01/18 08:42:46;;;;;;;53.30;28.52;;;;;;;-3.83;48.57;94343.55;1743608;80;21135;-50
2021/01/18 08:45:28;;;;;;;90.95;46.30;;;;;;;-3.94;48.74;94353.94;1749146;80;21181;-49
2021/01/18 08:48:01;;;;;;;113.95;52.98;;;;;;;-3.98;49.50;94350.44;1724265;82;21178;-50
2021/01/18 08:50:32;;;;;;;;;;;;;;;-3.88;49.53;94355.95;1746256;80;21223;-49
2021/01/18 08:53:03;;;;;;;121.97;57.23;;;;;;;-3.66;49.34;94348.91;1731690;82;21219;-51
2021/01/18 08:55:41;;;;;;;89.97;45.27;;;;;;;-3.52;49.21;94343.70;1734532;82;21181;-49
2021/01/18 08:58:09;;;;;;;77.70;42.05;;;;;;;-3.36;49.03;94344.45;1729862;81;21213;-50
2021/01/18 09:00:46;;;;;;;70.57;40.40;;;;;;;-3.17;48.69;94347.50;1717947;82;21119;-50
2021/01/18 09:03:20;;;;;;;75.25;39.38;;;;;;;-2.99;48.52;94354.61;1716877;82;21593;-49
2021/01/18 09:05:48;;;;;;;100.92;51.02;;;;;;;-2.87;48.26;94344.89;1725219;80;21278;-50
2021/01/18 09:08:18;;;;;;;62.67;34.08;;;;;;;-2.70;48.56;94340.22;1728715;82;21125;-51
2021/01/18 09:11:08;;;;;;;75.25;39.90;;;;;;;-2.46;46.70;94332.13;1733252;82;21574;-51
2021/01/18 09:13:39;;;;;;;61.28;34.90;;;;;;;-2.31;46.70;94345.30;1718292;82;21221;-50
2021/01/18 09:16:09;;;;;;;82.12;43.73;;;;;;;-2.01;46.34;94337.78;1717251;82;21154;-49
2021/01/18 09:18:38;;;;;;;153.90;78.60;;;;;;;-1.71;45.44;94344.46;1739651;80;21203;-50
2021/01/18 09:21:07;;;;;;;71.53;37.28;;;;;;;-1.61;45.09;94336.21;1735898;80;21165;-53
2021/01/18 09:23:36;;;;;;;109.05;56.10;;;;;;;-1.51;45.24;94332.80;1722736;82;21203;-50
2021/01/18 09:26:11;;;;;;;59.08;35.28;;;;;;;-1.38;45.04;94332.61;1718359;82;21228;-50
2021/01/18 09:28:51;;;;;;;57.85;32.73;;;;;;;-1.45;43.95;94327.22;1751313;80;21605;-51
2021/01/18 09:31:20;;;;;;;56.83;32.42;;;;;;;-1.36;44.29;94328.98;1750640;80;21641;-51
2021/01/18 09:33:51;;;;;;;45.33;26.95;;;;;;;-1.06;44.16;94327.50;1738592;80;21133;-51
2021/01/18 09:36:22;;;;;;;53.05;29.32;;;;;;;-0.72;43.15;94323.85;1772834;80;21146;-49
2021/01/18 09:38:50;;;;;;;45.25;27.27;;;;;;;-0.54;42.69;94327.31;1781664;79;21829;-52
2021/01/18 09:41:18;;;;;;;51.70;29.70;;;;;;;-0.52;42.11;94325.78;1750218;80;21609;-52
2021/01/18 09:43:47;;;;;;;65.72;35.95;;;;;;;-0.58;42.27;94321.16;1758002;81;21566;-50
2021/01/18 09:46:16;;;;;;;67.08;39.48;;;;;;;-0.60;42.75;94322.13;1758490;80;21297;-56
2021/01/18 09:48:50;;;;;;;62.25;38.15;;;;;;;-0.38;42.90;94320.94;1757718;80;21165;-50
2021/01/18 09:51:19;;;;;;;55.00;32.25;;;;;;;-0.10;41.62;94324.93;1758112;80;21696;-51
2021/01/18 09:53:59;;;;;;;52.80;31.52;;;;;;;-0.14;41.63;94321.47;1758272;80;21170;-50
2021/01/18 09:56:29;;;;;;;87.25;48.25;;;;;;;-0.16;41.87;94317.03;1758015;81;21337;-51
2021/01/18 09:58:59;;;;;;;86.40;46.60;;;;;;;-0.13;41.77;94318.95;1758186;81;21062;-50
2021/01/18 10:01:33;;;;;;;83.97;43.68;;;;;;;0.06;41.49;94318.71;1754338;81;21200;-51
2021/01/18 10:04:04;;;;;;;65.10;35.30;;;;;;;0.23;41.00;94314.42;1758356;80;21082;-50
2021/01/18 10:06:34;;;;;;;68.47;37.00;;;;;;;0.14;40.31;94310.00;1760969;80;21244;-51
2021/01/18 10:09:05;;;;;;;62.45;35.70;;;;;;;0.05;40.45;94315.82;1739546;81;21373;-52
2021/01/18 10:11:49;;;;;;;71.42;38.75;;;;;;;0.08;40.64;94308.27;1756188;79;21213;-52
2021/01/18 10:14:23;;;;;;;56.45;34.13;;;;;;;0.02;40.71;94315.25;1732191;82;21179;-50
2021/01/18 10:17:05;;;;;;;64.60;37.17;;;;;;;-0.16;41.17;94315.13;1766281;80;21058;-52
2021/01/18 10:19:38;;;;;;;79.25;43.60;;;;;;;-0.25;41.39;94314.73;1749180;80;22225;-53
2021/01/18 10:22:15;;;;;;;78.00;44.77;;;;;;;-0.15;40.70;94315.87;1746075;80;22259;-51
2021/01/18 10:24:59;;;;;;;72.53;41.92;;;;;;;-0.02;39.75;94318.36;1722841;80;21209;-52
2021/01/18 10:27:29;;;;;;;66.05;38.25;;;;;;;-0.21;39.58;94316.09;1723122;82;21115;-50
2021/01/18 10:30:12;;;;;;;61.73;33.73;;;;;;;-0.53;40.81;94320.76;1743203;80;21093;-51
2021/01/18 10:32:42;;;;;;;91.10;47.83;;;;;;;-0.62;41.05;94313.05;1744326;82;21463;-51
2021/01/18 10:35:31;;;;;;;73.37;40.48;;;;;;;-0.63;41.29;94320.20;1728299;82;22167;-49
2021/01/18 10:38:25;;;;;;;60.30;34.60;;;;;;;-0.51;41.78;94307.63;1744851;80;21151;-53
2021/01/18 10:41:08;;;;;;;71.45;36.77;;;;;;;-0.13;39.59;94300.82;1757889;80;21127;-51
2021/01/18 10:43:38;;;;;;;65.20;37.08;;;;;;;-0.10;39.49;94297.33;1723937;81;21176;-50
2021/01/18 10:46:15;;;;;;;72.35;40.12;;;;;;;-0.19;39.88;94311.82;1730524;82;21417;-50
2021/01/18 10:48:43;;;;;;;64.47;36.75;;;;;;;-0.13;40.25;94306.80;1737722;80;21569;-51
2021/01/18 10:51:12;;;;;;;54.30;32.67;;;;;;;-0.02;39.38;94315.66;1717186;82;21181;-50
2021/01/18 10:53:43;;;;;;;53.33;31.02;;;;;;;0.07;39.75;94313.49;1763808;80;21666;-51
2021/01/18 10:56:17;;;;;;;63.68;36.93;;;;;;;0.23;39.39;94320.59;1732576;82;21152;-51
2021/01/18 10:58:47;;;;;;;64.60;37.42;;;;;;;0.25;39.05;94309.39;1719823;82;21137;-50
2021/01/18 11:01:15;;;;;;;62.70;35.55;;;;;;;0.38;38.79;94303.15;1712156;82;21162;-51
2021/01/18 11:03:44;;;;;;;65.03;34.23;;;;;;;0.54;38.51;94310.80;1748399;81;21231;-50
2021/01/18 11:06:20;;;;;;;61.37;35.80;;;;;;;0.45;38.67;94309.11;1742156;81;21142;-50
2021/01/18 11:08:52;;;;;;;72.08;42.83;;;;;;;0.29;38.40;94310.14;1726194;81;21502;-51
2021/01/18 11:11:27;;;;;;;66.53;36.55;;;;;;;0.03;39.10;94312.73;1724928;81;21074;-53
2021/01/18 11:14:06;;;;;;;62.35;36.08;;;;;;;0.07;39.41;94311.38;1719944;82;21384;-52
2021/01/18 11:16:35;;;;;;;70.30;38.63;;;;;;;0.25;39.54;94308.80;1724028;82;21228;-50
2021/01/18 11:19:05;;;;;;;89.37;46.80;;;;;;;0.36;39.18;94314.16;1743742;80;21578;-51
2021/01/18 11:21:33;;;;;;;77.47;42.98;;;;;;;0.39;38.69;94312.05;1767514;79;21217;-52
2021/01/18 11:24:02;;;;;;;69.97;37.58;;;;;;;0.69;38.75;94313.63;1749525;81;21483;-50
2021/01/18 11:26:31;;;;;;;64.87;39.92;;;;;;;0.99;38.06;94315.20;1746127;79;22278;-50
2021/01/18 11:29:01;;;;;;;57.85;34.83;;;;;;;1.04;37.92;94309.36;1753997;81;21487;-50
2021/01/18 11:31:30;;;;;;;59.80;36.33;;;;;;;1.17;37.67;94318.56;1737682;81;21071;-50
2021/01/18 11:34:00;;;;;;;75.52;42.35;;;;;;;1.22;37.27;94316.20;1751825;81;21087;-50
2021/01/18 11:36:29;;;;;;;68.65;38.78;;;;;;;1.05;37.91;94310.89;1750022;79;21115;-50
2021/01/18 11:38:58;;;;;;;66.35;36.00;;;;;;;1.12;37.28;94315.69;1751773;79;21442;-51
2021/01/18 11:41:27;;;;;;;72.42;41.42;;;;;;;1.04;36.91;94314.20;1722770;81;21186;-49
2021/01/18 11:43:55;;;;;;;70.60;42.25;;;;;;;1.25;37.58;94312.70;1736269;81;21149;-52
2021/01/18 11:46:27;;;;;;;91.75;47.65;;;;;;;1.56;36.50;94313.03;1744959;81;21114;-50
2021/01/18 11:48:55;;;;;;;80.47;45.33;;;;;;;1.86;36.17;94309.06;1755652;79;21161;-52
2021/01/18 11:51:25;;;;;;;69.10;41.60;;;;;;;2.01;35.41;94304.47;1754249;79;22279;-50